createdAt,value
2023-03-06T00:02:57.003Z,97390.66
2023-03-06T00:06:04.189Z,97392.22
2023-03-06T00:09:10.754Z,97392.22
2023-03-06T00:12:17.526Z,97387.78
2023-03-06T00:15:24.255Z,97400.47
2023-03-06T00:18:33.672Z,97397.00
2023-03-06T00:21:39.664Z,97396.88
2023-03-06T00:24:47.317Z,97392.53
2023-03-06T00:27:53.937Z,97383.69
2023-03-06T00:31:01.423Z,97380.34
2023-03-06T00:34:11.750Z,97391.06
2023-03-06T00:37:19.325Z,97397.63
2023-03-06T00:40:25.564Z,97382.75
2023-03-06T00:43:33.025Z,97379.94
2023-03-06T00:46:39.379Z,97380.19
2023-03-06T00:49:48.735Z,97380.53
2023-03-06T00:52:54.609Z,97375.28
2023-03-06T00:56:01.263Z,97368.59
2023-03-06T00:59:08.674Z,97365.13
2023-03-06T01:02:15.612Z,97373.88
2023-03-06T01:05:24.979Z,97380.41
2023-03-06T01:08:31.704Z,97385.56
2023-03-06T01:11:37.474Z,97383.22
2023-03-06T01:14:44.182Z,97378.25
2023-03-06T01:17:50.199Z,97383.41
2023-03-06T01:20:59.369Z,97372.91
2023-03-06T01:24:05.182Z,97372.34
2023-03-06T01:27:12.192Z,97373.53
2023-03-06T01:30:18.578Z,97364.78
2023-03-06T01:33:25.467Z,97361.16
2023-03-06T01:36:33.945Z,97360.84
2023-03-06T01:39:42.488Z,97369.56
2023-03-06T01:42:48.343Z,97372.38
2023-03-06T01:46:42.395Z,97364.38
2023-03-06T01:49:48.261Z,97362.53
2023-03-06T01:53:03.985Z,97361.63
2023-03-06T01:56:11.171Z,97352.59
2023-03-06T01:59:19.479Z,97358.03
2023-03-06T02:02:25.966Z,97351.50
2023-03-06T02:05:32.848Z,97354.25
2023-03-06T02:08:43.107Z,97349.41
2023-03-06T02:11:49.833Z,97336.84
2023-03-06T02:14:56.783Z,97338.28
2023-03-06T02:18:04.176Z,97337.94
2023-03-06T02:21:13.171Z,97343.06
2023-03-06T02:24:40.522Z,97346.09
2023-03-06T02:27:49.241Z,97341.44
2023-03-06T02:30:59.940Z,97329.28
2023-03-06T02:34:31.202Z,97324.94
2023-03-06T02:37:37.879Z,97330.47
2023-03-06T02:40:49.978Z,97334.41
2023-03-06T02:43:59.361Z,97331.38
2023-03-06T02:47:05.230Z,97337.22
2023-03-06T02:50:13.647Z,97331.59
2023-03-06T02:53:22.541Z,97332.41
2023-03-06T02:56:29.133Z,97337.31
2023-03-06T02:59:38.775Z,97336.72
2023-03-06T03:02:47.057Z,97333.59
2023-03-06T03:05:52.949Z,97342.06
2023-03-06T03:09:04.070Z,97342.06
2023-03-06T03:12:11.365Z,97330.88
2023-03-06T03:15:22.124Z,97323.09
2023-03-06T03:18:27.893Z,97325.56
2023-03-06T03:21:34.755Z,97326.56
2023-03-06T03:24:40.641Z,97323.16
2023-03-06T03:27:47.445Z,97324.72
2023-03-06T03:30:55.978Z,97316.91
2023-03-06T03:34:04.844Z,97315.50
2023-03-06T03:37:14.169Z,97312.78
2023-03-06T03:40:22.696Z,97307.59
2023-03-06T03:43:29.988Z,97312.78
2023-03-06T03:46:41.371Z,97307.34
2023-03-06T03:49:52.152Z,97305.16
2023-03-06T03:53:00.225Z,97302.09
2023-03-06T03:56:06.837Z,97295.13
2023-03-06T03:59:18.819Z,97301.81
2023-03-06T04:02:38.148Z,97287.13
2023-03-06T04:05:54.107Z,97286.69
2023-03-06T04:09:00.434Z,97294.84
2023-03-06T04:12:08.960Z,97289.38
2023-03-06T04:15:16.302Z,97291.97
2023-03-06T04:18:27.487Z,97281.34
2023-03-06T04:21:37.900Z,97281.59
2023-03-06T04:24:45.785Z,97282.41
2023-03-06T04:27:52.361Z,97272.81
2023-03-06T04:30:59.135Z,97263.44
2023-03-06T04:34:07.873Z,97251.94
2023-03-06T04:37:24.283Z,97253.34
2023-03-06T04:40:34.805Z,97258.78
2023-03-06T04:43:41.807Z,97255.78
2023-03-06T04:46:47.610Z,97252.16
2023-03-06T04:49:56.964Z,97258.84
2023-03-06T04:53:04.929Z,97241.88
2023-03-06T04:56:12.070Z,97245.84
2023-03-06T04:59:17.841Z,97247.63
2023-03-06T05:02:24.862Z,97259.38
2023-03-06T05:05:33.983Z,97263.94
2023-03-06T05:08:40.544Z,97257.44
2023-03-06T05:11:46.312Z,97243.81
2023-03-06T05:14:52.925Z,97239.06
2023-03-06T05:17:58.700Z,97232.44
2023-03-06T05:21:09.303Z,97226.25
2023-03-06T05:24:15.206Z,97226.72
2023-03-06T05:27:21.893Z,97237.34
2023-03-06T05:30:28.146Z,97240.34
2023-03-06T05:33:35.516Z,97246.19
2023-03-06T05:36:44.635Z,97245.31
2023-03-06T05:39:51.306Z,97237.31
2023-03-06T05:42:57.071Z,97237.97
2023-03-06T05:46:05.725Z,97240.91
2023-03-06T05:49:11.848Z,97233.56
2023-03-06T05:52:21.494Z,97223.34
2023-03-06T05:55:29.801Z,97226.50
2023-03-06T05:58:38.022Z,97234.81
2023-03-06T06:01:43.964Z,97237.53
2023-03-06T06:04:51.268Z,97237.50
2023-03-06T06:07:59.650Z,97231.09
2023-03-06T06:11:12.322Z,97229.53
2023-03-06T06:14:31.220Z,97212.09
2023-03-06T06:23:26.874Z,97247.56
2023-03-06T06:27:10.552Z,97222.25
2023-03-06T06:30:48.847Z,97239.56
2023-03-06T06:34:25.987Z,97232.78
2023-03-06T06:38:05.998Z,97249.16
2023-03-06T06:42:11.026Z,97230.84
2023-03-06T06:45:34.549Z,97247.75
2023-03-06T06:48:41.127Z,97249.78
2023-03-06T06:51:47.029Z,97248.59
2023-03-06T06:54:53.853Z,97254.06
2023-03-06T06:58:02.225Z,97256.34
2023-03-06T07:01:10.329Z,97246.16
2023-03-06T07:04:16.920Z,97257.75
2023-03-06T07:07:25.416Z,97253.53
2023-03-06T07:10:32.052Z,97255.81
2023-03-06T07:13:41.623Z,97257.03
2023-03-06T07:16:47.364Z,97259.25
2023-03-06T07:19:53.996Z,97248.13
2023-03-06T07:22:59.830Z,97254.28
2023-03-06T07:26:07.060Z,97254.16
2023-03-06T07:29:15.494Z,97257.94
2023-03-06T07:32:22.089Z,97257.06
2023-03-06T07:35:29.894Z,97260.34
2023-03-06T07:38:36.570Z,97262.03
2023-03-06T07:41:42.420Z,97257.47
2023-03-06T07:44:51.650Z,97261.47
2023-03-06T07:47:57.826Z,97260.59
2023-03-06T07:51:10.282Z,97270.63
2023-03-06T07:54:16.193Z,97264.63
2023-03-06T07:57:22.929Z,97263.78
2023-03-06T08:00:31.495Z,97253.03
2023-03-06T08:03:41.364Z,97266.78
2023-03-06T08:06:47.134Z,97268.63
2023-03-06T08:09:53.946Z,97262.31
2023-03-06T08:13:00.021Z,97260.44
2023-03-06T08:16:10.674Z,97263.59
2023-03-06T08:19:16.518Z,97260.56
2023-03-06T08:22:23.884Z,97262.59
2023-03-06T08:25:29.742Z,97254.06
2023-03-06T08:28:37.022Z,97262.34
2023-03-06T08:31:48.663Z,97261.28
2023-03-06T08:34:56.131Z,97268.13
2023-03-06T08:38:02.045Z,97255.34
2023-03-06T08:41:08.841Z,97263.69
2023-03-06T08:44:15.667Z,97257.69
2023-03-06T08:47:24.915Z,97256.78
2023-03-06T08:50:30.862Z,97258.09
2023-03-06T08:53:43.084Z,97264.97
2023-03-06T08:56:49.527Z,97253.09
2023-03-06T08:59:56.079Z,97271.31
2023-03-06T09:03:04.584Z,97253.75
2023-03-06T09:06:11.262Z,97251.38
2023-03-06T09:09:18.291Z,97253.19
2023-03-06T09:12:24.031Z,97254.34
2023-03-06T09:15:30.690Z,97255.13
2023-03-06T09:18:39.659Z,97257.50
2023-03-06T09:21:46.280Z,97251.41
2023-03-06T09:24:52.659Z,97250.22
2023-03-06T09:28:10.890Z,97251.91
2023-03-06T09:31:21.786Z,97244.59
2023-03-06T09:34:31.007Z,97246.13
2023-03-06T09:37:37.247Z,97252.91
2023-03-06T09:44:21.492Z,97241.44
2023-03-06T09:47:50.595Z,97252.69
2023-03-06T09:51:13.128Z,97246.06
2023-03-06T09:54:24.064Z,97245.84
2023-03-06T09:57:36.252Z,97243.44
2023-03-06T10:00:54.442Z,97238.56
2023-03-06T10:04:27.094Z,97241.34
2023-03-06T10:07:49.895Z,97236.88
2023-03-06T10:11:05.707Z,97234.69
2023-03-06T10:14:26.763Z,97226.84
2023-03-06T10:17:41.648Z,97228.63
2023-03-06T10:21:16.978Z,97207.53
2023-03-06T10:24:56.232Z,97209.56
2023-03-06T10:28:18.562Z,97209.84
2023-03-06T10:31:29.419Z,97213.19
2023-03-06T10:34:44.379Z,97214.44
2023-03-06T10:37:51.902Z,97215.19
2023-03-06T10:41:19.609Z,97207.25
2023-03-06T10:44:29.110Z,97207.00
2023-03-06T10:47:37.765Z,97204.72
2023-03-06T10:50:43.771Z,97199.47
2023-03-06T10:53:58.996Z,97194.94
2023-03-06T10:57:32.891Z,97201.41
2023-03-06T11:00:39.679Z,97189.13
2023-03-06T11:03:45.706Z,97177.47
2023-03-06T11:07:08.480Z,97175.78
2023-03-06T11:10:23.832Z,97172.94
2023-03-06T11:13:36.178Z,97169.56
2023-03-06T11:16:42.746Z,97161.81
2023-03-06T11:19:49.417Z,97169.34
2023-03-06T11:23:03.209Z,97160.78
2023-03-06T11:26:32.596Z,97164.47
2023-03-06T11:29:46.294Z,97158.84
2023-03-06T11:33:02.026Z,97155.19
2023-03-06T11:36:21.553Z,97145.69
2023-03-06T11:39:39.836Z,97150.13
2023-03-06T11:42:59.102Z,97137.94
2023-03-06T11:46:22.977Z,97136.34
2023-03-06T11:49:41.479Z,97140.34
2023-03-06T11:52:56.743Z,97122.78
2023-03-06T11:56:23.025Z,97117.19
2023-03-06T12:00:24.301Z,97111.16
2023-03-06T12:04:16.753Z,97093.50
2023-03-06T12:07:35.085Z,97099.66
2023-03-06T12:10:52.441Z,97098.59
2023-03-06T12:14:25.887Z,97096.44
2023-03-06T12:17:57.857Z,97093.25
2023-03-06T12:21:23.375Z,97091.59
2023-03-06T12:25:21.294Z,97073.22
2023-03-06T12:29:05.608Z,97072.72
2023-03-06T12:32:30.651Z,97066.16
2023-03-06T12:36:17.114Z,97067.94
2023-03-06T12:39:45.047Z,97084.50
2023-03-06T12:43:40.587Z,97074.59
2023-03-06T12:46:54.888Z,97067.50
2023-03-06T12:50:10.471Z,97069.03
2023-03-06T12:53:30.500Z,97073.00
2023-03-06T12:56:38.758Z,97070.19
2023-03-06T12:59:48.837Z,97065.41
2023-03-06T13:03:21.589Z,97059.31
2023-03-06T13:07:05.688Z,97064.63
2023-03-06T13:10:25.668Z,97053.22
2023-03-06T13:13:37.227Z,97061.69
2023-03-06T13:16:43.898Z,97044.59
2023-03-06T13:19:50.902Z,97053.66
2023-03-06T13:22:57.836Z,97046.50
2023-03-06T13:26:12.783Z,97036.16
2023-03-06T13:29:55.762Z,97043.44
2023-03-06T13:33:01.639Z,97033.22
2023-03-06T13:36:27.096Z,97039.53
2023-03-06T13:40:29.625Z,97028.91
2023-03-06T13:43:45.665Z,97034.91
2023-03-06T13:47:02.740Z,97037.53
2023-03-06T13:50:38.382Z,97023.09
2023-03-06T13:54:30.742Z,97026.53
2023-03-06T13:58:04.076Z,97032.03
2023-03-06T14:01:43.070Z,97023.19
2023-03-06T14:05:00.743Z,97014.16
2023-03-06T14:08:17.564Z,97010.00
2023-03-06T14:11:25.026Z,97016.53
2023-03-06T14:14:45.442Z,97023.84
2023-03-06T14:18:03.433Z,97037.44
2023-03-06T14:21:15.990Z,97034.56
2023-03-06T14:24:34.562Z,97049.13
2023-03-06T14:27:56.325Z,97058.44
2023-03-06T14:31:08.849Z,97056.03
2023-03-06T14:34:26.758Z,97057.47
2023-03-06T14:37:35.094Z,97061.81
2023-03-06T14:40:48.624Z,97051.78
2023-03-06T14:44:10.022Z,97056.66
2023-03-06T14:47:28.722Z,97054.00
2023-03-06T14:50:41.021Z,97056.72
2023-03-06T14:53:49.847Z,97053.31
2023-03-06T14:57:06.144Z,97051.38
2023-03-06T15:00:24.199Z,97052.97
2023-03-06T15:03:45.416Z,97058.50
2023-03-06T15:06:56.925Z,97060.75
2023-03-06T15:10:10.535Z,97065.75
2023-03-06T15:13:26.268Z,97063.88
2023-03-06T15:16:34.973Z,97062.28
2023-03-06T15:19:43.380Z,97054.41
2023-03-06T15:22:54.165Z,97052.00
2023-03-06T15:26:03.898Z,97062.28
2023-03-06T15:29:26.665Z,97061.81
2023-03-06T15:32:42.619Z,97058.75
2023-03-06T15:35:58.924Z,97057.78
2023-03-06T15:39:41.354Z,97060.34
2023-03-06T15:42:50.120Z,97047.53
2023-03-06T15:46:03.580Z,97059.38
2023-03-06T15:49:20.768Z,97044.75
2023-03-06T15:52:27.536Z,97039.38
2023-03-06T15:55:36.885Z,97041.97
2023-03-06T15:58:44.777Z,97035.81
2023-03-06T16:01:53.244Z,97033.91
2023-03-06T16:05:02.558Z,97036.06
2023-03-06T16:08:11.030Z,97034.97
2023-03-06T16:11:35.340Z,97041.28
2023-03-06T16:14:50.757Z,97041.75
2023-03-06T16:17:56.747Z,97040.28
2023-03-06T16:21:03.597Z,97043.75
2023-03-06T16:24:09.865Z,97041.34
2023-03-06T16:27:25.719Z,97033.56
2023-03-06T16:30:35.704Z,97030.16
2023-03-06T16:33:42.596Z,97031.28
2023-03-06T16:36:50.299Z,97034.88
2023-03-06T16:39:56.840Z,97024.97
2023-03-06T16:43:05.278Z,97030.47
2023-03-06T16:46:20.612Z,97035.81
2023-03-06T16:49:27.953Z,97030.09
2023-03-06T16:52:34.871Z,97043.78
2023-03-06T16:55:40.808Z,97043.00
2023-03-06T16:58:52.023Z,97040.34
2023-03-06T17:01:57.855Z,97044.44
2023-03-06T17:05:04.644Z,97042.63
2023-03-06T17:08:10.670Z,97039.53
2023-03-06T17:11:18.118Z,97040.47
2023-03-06T17:14:26.591Z,97042.56
2023-03-06T17:17:33.237Z,97047.59
2023-03-06T17:20:39.085Z,97048.34
2023-03-06T17:23:47.042Z,97046.66
2023-03-06T17:26:53.048Z,97060.41
2023-03-06T17:30:04.480Z,97051.47
2023-03-06T17:33:10.312Z,97050.63
2023-03-06T17:36:19.548Z,97048.94
2023-03-06T17:39:26.027Z,97046.38
2023-03-06T17:42:32.689Z,97054.88
2023-03-06T17:45:41.999Z,97072.06
2023-03-06T17:48:49.655Z,97065.69
2023-03-06T17:51:56.640Z,97064.38
2023-03-06T17:55:03.203Z,97077.66
2023-03-06T18:01:21.641Z,97066.69
2023-03-06T18:04:28.661Z,97069.78
2023-03-06T18:07:34.476Z,97065.91
2023-03-06T18:10:43.514Z,97066.56
2023-03-06T18:13:49.323Z,97065.41
2023-03-06T18:16:58.508Z,97073.03
2023-03-06T18:20:04.627Z,97064.31
2023-03-06T18:23:11.903Z,97062.03
2023-03-06T18:26:21.007Z,97061.72
2023-03-06T18:29:27.711Z,97064.66
2023-03-06T18:32:36.212Z,97053.81
2023-03-06T18:35:44.214Z,97062.75
2023-03-06T18:38:50.190Z,97061.13
2023-03-06T18:41:56.896Z,97056.09
2023-03-06T18:45:03.236Z,97052.69
2023-03-06T18:48:12.575Z,97045.56
2023-03-06T18:51:20.376Z,97048.97
2023-03-06T18:54:28.748Z,97054.47
2023-03-06T18:57:34.595Z,97052.38
2023-03-06T19:00:41.218Z,97055.13
2023-03-06T19:03:53.133Z,97061.13
2023-03-06T19:06:59.845Z,97052.81
2023-03-06T19:10:06.149Z,97046.28
2023-03-06T19:13:14.225Z,97056.81
2023-03-06T19:16:23.266Z,97051.78
2023-03-06T19:19:32.721Z,97044.97
2023-03-06T19:22:38.601Z,97049.38
2023-03-06T19:25:45.437Z,97041.72
2023-03-06T19:28:56.570Z,97041.59
2023-03-06T19:32:04.428Z,97033.63
2023-03-06T19:35:13.850Z,97033.34
2023-03-06T19:38:21.026Z,97033.69
2023-03-06T19:41:28.157Z,97038.53
2023-03-06T19:44:35.692Z,97033.19
2023-03-06T19:47:41.682Z,97030.75
2023-03-06T19:50:52.464Z,97028.94
2023-03-06T19:53:59.817Z,97032.03
2023-03-06T19:57:06.870Z,97025.88
2023-03-06T20:00:16.228Z,97036.53
2023-03-06T20:03:22.863Z,97033.78
2023-03-06T20:06:36.809Z,97038.63
2023-03-06T20:09:44.025Z,97040.28
2023-03-06T20:12:55.144Z,97039.78
2023-03-06T20:16:06.292Z,97045.78
2023-03-06T20:19:13.924Z,97048.19
2023-03-06T20:22:23.598Z,97045.75
2023-03-06T20:25:29.989Z,97052.09
2023-03-06T20:28:38.077Z,97051.59
2023-03-06T20:31:45.627Z,97050.13
2023-03-06T20:34:55.369Z,97045.25
2023-03-06T20:38:04.151Z,97045.72
2023-03-06T20:41:18.573Z,97038.56
2023-03-06T20:44:24.405Z,97046.19
2023-03-06T20:47:32.883Z,97046.38
2023-03-06T20:50:39.022Z,97042.84
2023-03-06T20:53:50.838Z,97040.44
2023-03-06T20:56:58.235Z,97033.16
2023-03-06T21:00:05.412Z,97042.72
2023-03-06T21:03:11.355Z,97047.28
2023-03-06T21:06:18.907Z,97044.84
2023-03-06T21:09:27.268Z,97040.78
2023-03-06T21:12:36.429Z,97036.56
2023-03-06T21:15:42.702Z,97038.50
2023-03-06T21:18:50.277Z,97036.06
2023-03-06T21:21:56.328Z,97036.88
2023-03-06T21:25:05.558Z,97041.91
2023-03-06T21:28:11.307Z,97035.25
2023-03-06T21:31:22.197Z,97025.53
2023-03-06T21:34:28.347Z,97027.84
2023-03-06T21:37:35.283Z,97021.50
2023-03-06T21:40:45.525Z,97023.59
2023-03-06T21:43:52.106Z,97028.78
2023-03-06T21:46:57.796Z,97025.88
2023-03-06T21:50:04.352Z,97037.56
2023-03-06T21:53:12.463Z,97029.28
2023-03-06T21:56:25.486Z,97029.59
2023-03-06T21:59:31.425Z,97023.28
2023-03-06T22:02:38.500Z,97021.16
2023-03-06T22:05:44.786Z,97014.69
2023-03-06T22:08:51.855Z,97019.41
2023-03-06T22:12:00.393Z,97014.00
2023-03-06T22:15:09.560Z,97014.34
2023-03-06T22:18:16.054Z,97013.34
2023-03-06T22:21:26.057Z,97020.47
2023-03-06T22:24:31.881Z,97020.16
2023-03-06T22:27:41.152Z,97011.53
2023-03-06T22:30:46.891Z,97013.81
2023-03-06T22:33:55.343Z,97014.91
2023-03-06T22:37:01.328Z,97010.69
2023-03-06T22:40:09.809Z,97013.13
2023-03-06T22:43:20.164Z,97011.97
2023-03-06T22:46:27.974Z,96992.66
2023-03-06T22:49:33.818Z,97010.69
2023-03-06T22:52:40.460Z,97015.84
2023-03-06T22:55:46.272Z,97015.34
2023-03-06T22:58:55.585Z,97013.56
2023-03-06T23:02:01.441Z,97014.88
2023-03-06T23:05:09.833Z,97008.75
2023-03-06T23:08:17.307Z,97010.22
2023-03-06T23:11:26.001Z,96999.34
2023-03-06T23:14:53.182Z,96999.06
2023-03-06T23:18:18.213Z,97013.34
2023-03-06T23:21:43.028Z,97004.75
2023-03-06T23:25:09.745Z,97007.53
2023-03-06T23:28:15.801Z,97006.88
2023-03-06T23:31:28.737Z,97001.88
2023-03-06T23:34:34.746Z,97011.44
2023-03-06T23:37:42.830Z,97007.06
2023-03-06T23:40:49.755Z,97013.22
2023-03-06T23:43:56.642Z,97009.81
2023-03-06T23:47:05.651Z,97011.94
2023-03-06T23:50:14.203Z,97013.22
2023-03-06T23:53:20.645Z,97012.72
2023-03-06T23:56:27.920Z,97015.19
2023-03-06T23:59:33.764Z,97011.94
